Time;durP1;ratioP1;P1;durP2;ratioP2;P2;SDS_P1;SDS_P2;PMS_P1;PMS_P2;Temp;Humidity;BMP_temperature;BMP_pressure;BME280_temperature;BME280_humidity;BME280_pressure;Samples;Min_cycle;Max_cycle;Signal;HPM_P1;HPM_P2
2021/01/19 00:01:43;;;;;;;93.13;46.65;;;115.70;2176.00;;;;;;4776505;30;20101;-80
2021/01/19 00:12:06;;;;;;;104.80;48.05;;;115.90;2176.00;;;;;;4768824;30;20063;-80
2021/01/19 00:37:28;;;;;;;70.20;34.75;;;141.00;2176.00;;;;;;4837417;29;20045;-80
2021/01/19 00:43:52;;;;;;;101.70;43.70;;;141.30;2176.00;;;;;;4778903;29;20035;-79
2021/01/19 00:46:18;;;;;;;72.60;36.67;;;141.20;2176.00;;;;;;4860674;29;20489;-80
2021/01/19 00:48:44;;;;;;;54.83;29.83;;;141.10;2176.00;;;;;;4855630;29;20097;-80
2021/01/19 00:51:10;;;;;;;52.85;28.90;;;141.10;2176.00;;;;;;4940396;28;20059;-78
2021/01/19 00:53:36;;;;;;;97.40;44.67;;;141.10;2176.00;;;;;;4966403;28;20022;-78
2021/01/19 00:56:32;;;;;;;58.47;29.83;;;141.10;2176.00;;;;;;4971332;28;20026;-79
2021/01/19 00:58:59;;;;;;;67.63;35.17;;;141.00;2176.00;;;;;;4983879;28;20062;-78
2021/01/19 01:01:24;;;;;;;54.15;27.35;;;115.80;2176.00;;;;;;4966250;28;20019;-79
2021/01/19 01:03:50;;;;;;;66.40;33.22;;;141.10;2176.00;;;;;;4965850;28;20407;-79
2021/01/19 01:06:16;;;;;;;69.10;35.45;;;141.10;2176.00;;;;;;4965272;28;20027;-77
2021/01/19 01:08:45;;;;;;;100.15;50.60;;;141.10;2176.00;;;;;;4969466;28;20033;-78
2021/01/19 01:11:11;;;;;;;87.75;41.83;;;141.10;2176.00;;;;;;4960451;28;20030;-78
2021/01/19 01:13:37;;;;;;;56.70;29.17;;;141.30;2176.00;;;;;;4958372;28;20054;-77
2021/01/19 01:16:07;;;;;;;63.00;33.75;;;141.20;2176.00;;;;;;4950933;28;20031;-78
2021/01/19 01:18:47;;;;;;;84.13;41.97;;;141.30;2176.00;;;;;;4964609;28;20051;-81
2021/01/19 01:22:16;;;;;;;57.33;28.02;;;141.30;2176.00;;;;;;4965607;28;20494;-80
2021/01/19 01:25:39;;;;;;;78.40;39.28;;;141.40;2176.00;;;;;;4964899;28;20097;-79
2021/01/19 01:29:17;;;;;;;155.32;65.82;;;141.20;2176.00;;;;;;4880600;29;20061;-81
2021/01/19 01:32:05;;;;;;;86.55;44.45;;;141.10;2176.00;;;;;;4832937;29;20030;-79
2021/01/19 01:34:32;;;;;;;87.68;45.42;;;141.10;2176.00;;;;;;4855265;29;20029;-79
2021/01/19 01:37:20;;;;;;;94.22;44.40;;;141.00;2176.00;;;;;;4876960;29;20037;-79
2021/01/19 01:40:23;;;;;;;63.83;31.70;;;141.10;2176.00;;;;;;4861375;29;20082;-79
2021/01/19 01:43:57;;;;;;;57.75;31.48;;;141.10;2176.00;;;;;;4886903;29;20040;-79
2021/01/19 01:50:25;;;;;;;65.28;32.45;;;141.00;2176.00;;;;;;4817030;29;20061;-80
2021/01/19 01:53:49;;;;;;;66.65;31.85;;;141.00;2176.00;;;;;;4798160;30;20023;-80
2021/01/19 01:57:42;;;;;;;62.63;31.92;;;140.90;2176.00;;;;;;4765829;30;20131;-80
2021/01/19 02:05:06;;;;;;;70.90;34.40;;;141.00;2176.00;;;;;;4749929;30;20305;-79
2021/01/19 02:08:31;;;;;;;86.47;39.10;;;141.00;2176.00;;;;;;4731320;30;20045;-79
2021/01/19 02:15:42;;;;;;;68.30;33.13;;;141.10;2176.00;;;;;;4731726;30;20059;-80
2021/01/19 02:19:24;;;;;;;67.80;32.95;;;141.20;2176.00;;;;;;4731678;30;20118;-80
2021/01/19 02:37:06;;;;;;;59.83;30.77;;;141.00;2176.00;;;;;;4743975;30;20077;-79
2021/01/19 02:40:30;;;;;;;57.63;29.65;;;141.10;2176.00;;;;;;4766169;30;20118;-81
2021/01/19 02:47:09;;;;;;;117.00;48.87;;;141.10;2176.00;;;;;;4749965;30;20047;-79
2021/01/19 02:50:34;;;;;;;78.10;39.05;;;141.00;2176.00;;;;;;4750210;30;20032;-80
2021/01/19 02:57:44;;;;;;;101.90;45.72;;;141.20;2176.00;;;;;;4799932;29;20108;-80
2021/01/19 03:01:03;;;;;;;109.88;49.75;;;141.00;2176.00;;;;;;4822964;29;20554;-79
2021/01/19 03:08:07;;;;;;;76.68;36.00;;;141.00;2176.00;;;;;;4782497;30;20043;-80
2021/01/19 03:11:01;;;;;;;52.90;29.25;;;141.00;2176.00;;;;;;4784134;30;20096;-79
2021/01/19 03:18:02;;;;;;;62.95;32.17;;;140.90;2176.00;;;;;;4740094;30;20074;-79
2021/01/19 03:21:08;;;;;;;62.47;33.03;;;140.80;2176.00;;;;;;4749904;30;20601;-79
2021/01/19 03:24:54;;;;;;;71.10;35.47;;;140.80;2176.00;;;;;;4769862;30;20109;-80
2021/01/19 03:28:14;;;;;;;53.03;28.17;;;141.10;2176.00;;;;;;4791791;30;20546;-80
2021/01/19 03:31:23;;;;;;;59.00;30.35;;;141.20;2176.00;;;;;;4800438;29;20030;-80
2021/01/19 03:34:46;;;;;;;61.85;30.50;;;141.20;2176.00;;;;;;4763688;30;20040;-80
2021/01/19 03:48:42;;;;;;;52.10;28.30;;;141.00;2176.00;;;;;;4764998;30;20039;-81
2021/01/19 03:52:05;;;;;;;47.20;25.38;;;141.00;2176.00;;;;;;4765955;30;20047;-80
2021/01/19 03:55:37;;;;;;;58.70;29.02;;;141.00;2176.00;;;;;;4765874;30;20086;-79
2021/01/19 04:03:03;;;;;;;67.47;34.17;;;141.10;2176.00;;;;;;4766775;30;20128;-80
2021/01/19 04:06:44;;;;;;;50.58;29.73;;;141.10;2176.00;;;;;;4748143;30;20068;-80
2021/01/19 04:13:45;;;;;;;50.97;25.75;;;140.90;2176.00;;;;;;4766079;30;20093;-81
2021/01/19 04:20:31;;;;;;;47.97;28.23;;;141.00;2176.00;;;;;;4789957;30;20069;-79
2021/01/19 04:24:16;;;;;;;50.28;28.13;;;140.90;2176.00;;;;;;4799578;30;20052;-79
2021/01/19 04:31:50;;;;;;;54.92;29.33;;;141.20;2176.00;;;;;;4745597;30;20055;-79
2021/01/19 04:34:47;;;;;;;52.97;27.35;;;140.90;2176.00;;;;;;4754274;30;20044;-79
2021/01/19 04:41:46;;;;;;;58.30;29.40;;;140.90;2176.00;;;;;;4744502;30;20067;-79
2021/01/19 04:45:27;;;;;;;55.25;29.88;;;140.90;2176.00;;;;;;4744304;30;20035;-79
2021/01/19 04:52:06;;;;;;;56.75;30.65;;;140.80;2176.00;;;;;;4744063;30;20047;-79
2021/01/19 04:58:54;;;;;;;43.50;24.70;;;140.80;2176.00;;;;;;4744666;30;20039;-82
2021/01/19 05:06:07;;;;;;;46.42;26.42;;;116.00;2176.00;;;;;;4763180;30;20089;-80
2021/01/19 05:10:05;;;;;;;48.20;26.17;;;116.10;2176.00;;;;;;4719673;30;20076;-79
2021/01/19 05:16:55;;;;;;;43.63;26.85;;;116.00;2176.00;;;;;;4707466;30;20044;-80
2021/01/19 05:27:35;;;;;;;62.47;32.95;;;115.90;2176.00;;;;;;4661418;30;20034;-80
2021/01/19 06:04:04;;;;;;;99.00;47.25;;;115.80;2176.00;;;;;;4841824;29;20067;-79
2021/01/19 06:07:29;;;;;;;79.57;39.95;;;115.80;2176.00;;;;;;4781687;29;20525;-78
2021/01/19 06:10:43;;;;;;;88.07;48.13;;;115.80;2176.00;;;;;;4837467;29;20030;-80
2021/01/19 06:14:17;;;;;;;90.40;49.75;;;115.80;2176.00;;;;;;4837243;29;20499;-80
2021/01/19 06:17:43;;;;;;;96.07;47.05;;;115.70;2176.00;;;;;;4892536;29;20095;-81
2021/01/19 06:20:59;;;;;;;138.82;64.63;;;115.70;2176.00;;;;;;4892354;29;20093;-80
2021/01/19 06:24:28;;;;;;;122.32;60.28;;;115.60;2176.00;;;;;;4879181;29;20520;-80
2021/01/19 06:28:20;;;;;;;82.97;37.05;;;115.60;2176.00;;;;;;4893011;29;20037;-78
2021/01/19 06:32:00;;;;;;;115.30;58.60;;;115.90;2176.00;;;;;;4857551;29;20436;-79
2021/01/19 06:49:10;;;;;;;84.55;44.20;;;115.50;2176.00;;;;;;4676216;30;20041;-82
2021/01/19 06:52:36;;;;;;;79.72;40.47;;;115.50;2176.00;;;;;;4674753;30;20034;-79
2021/01/19 06:56:06;;;;;;;151.48;74.55;;;115.40;2176.00;;;;;;4642576;30;20106;-81
2021/01/19 06:59:51;;;;;;;102.65;53.13;;;115.40;2176.00;;;;;;4633469;30;20482;-79
2021/01/19 07:03:28;;;;;;;70.55;40.17;;;115.30;2176.00;;;;;;4625367;31;20621;-79
2021/01/19 07:17:14;;;;;;;136.77;74.85;;;90.50;2176.00;;;;;;4695798;30;20119;-79
2021/01/19 07:21:09;;;;;;;138.75;90.30;;;90.40;2176.00;;;;;;4759252;30;20044;-80
2021/01/19 07:24:38;;;;;;;107.43;62.38;;;90.40;2176.00;;;;;;4741508;30;20097;-79
2021/01/19 07:28:03;;;;;;;84.90;46.25;;;90.40;2176.00;;;;;;4752176;30;20040;-79
2021/01/19 07:42:25;;;;;;;86.53;51.65;;;90.30;2176.00;;;;;;4760382;30;20084;-79
2021/01/19 07:46:06;;;;;;;95.22;63.75;;;90.30;2176.00;;;;;;4770354;30;20080;-80
2021/01/19 07:49:44;;;;;;;96.35;62.53;;;90.20;2176.00;;;;;;4742788;30;20449;-78
2021/01/19 07:52:38;;;;;;;132.18;69.10;;;90.20;2176.00;;;;;;4744229;30;20446;-78
2021/01/19 07:55:43;;;;;;;161.32;92.68;;;90.10;2176.00;;;;;;4743157;30;20041;-78
2021/01/19 08:02:35;;;;;;;106.85;62.70;;;90.10;2176.00;;;;;;4760894;30;20050;-79
2021/01/19 08:06:20;;;;;;;71.85;46.40;;;90.10;2150.40;;;;;;4779821;29;20544;-80
2021/01/19 08:20:16;;;;;;;98.97;62.45;;;89.90;2176.00;;;;;;4708335;30;20111;-79
2021/01/19 08:23:44;;;;;;;144.18;122.15;;;89.80;2176.00;;;;;;4698567;30;20045;-79
2021/01/19 08:27:28;;;;;;;54.05;34.63;;;89.90;2176.00;;;;;;4703001;30;20526;-79
2021/01/19 08:31:14;;;;;;;75.70;53.85;;;89.80;2176.00;;;;;;4667665;30;20030;-79
2021/01/19 08:37:48;;;;;;;69.75;47.75;;;89.70;2150.40;;;;;;4640822;30;20050;-78
2021/01/19 08:48:26;;;;;;;65.60;40.65;;;89.80;2176.00;;;;;;4687387;30;20058;-78
2021/01/19 08:52:06;;;;;;;69.65;43.38;;;89.80;2176.00;;;;;;4698266;30;20049;-79
2021/01/19 09:02:19;;;;;;;94.53;49.33;;;89.60;2201.60;;;;;;4813960;29;20105;-79
2021/01/19 09:06:15;;;;;;;65.72;38.95;;;89.60;2201.60;;;;;;4767089;30;20096;-79
2021/01/19 09:12:57;;;;;;;180.18;118.53;;;89.60;2201.60;;;;;;4725793;30;20100;-79
2021/01/19 09:16:08;;;;;;;66.40;42.05;;;89.60;2201.60;;;;;;4720488;30;20457;-79
2021/01/19 09:19:34;;;;;;;72.95;42.20;;;64.90;2201.60;;;;;;4820707;29;20036;-79
2021/01/19 09:23:33;;;;;;;59.25;36.78;;;64.70;2201.60;;;;;;4883022;29;20079;-78
2021/01/19 09:26:45;;;;;;;56.35;33.33;;;64.80;2176.00;;;;;;4831785;29;20050;-79
2021/01/19 09:30:04;;;;;;;63.10;33.55;;;64.70;2176.00;;;;;;4841113;29;20034;-79
2021/01/19 09:33:28;;;;;;;70.93;42.78;;;64.60;2176.00;;;;;;4806782;29;20050;-79
2021/01/19 09:40:19;;;;;;;68.35;39.85;;;64.50;2176.00;;;;;;4773003;30;20044;-79
2021/01/19 09:57:40;;;;;;;110.80;60.40;;;64.10;2150.40;;;;;;4804599;29;20423;-79
2021/01/19 10:01:13;;;;;;;141.48;84.30;;;64.00;2150.40;;;;;;4781387;30;20074;-79
2021/01/19 10:04:36;;;;;;;116.82;63.63;;;39.20;2150.40;;;;;;4807337;30;20107;-80
2021/01/19 10:08:02;;;;;;;82.20;46.97;;;39.10;2150.40;;;;;;4806309;30;20027;-78
2021/01/19 10:10:47;;;;;;;82.40;48.78;;;39.00;2099.20;;;;;;4877131;29;20110;-77
2021/01/19 10:13:16;;;;;;;83.63;50.33;;;39.00;2099.20;;;;;;4887524;29;20026;-78
2021/01/19 10:16:38;;;;;;;85.53;55.85;;;38.80;2099.20;;;;;;4882755;29;20098;-79
2021/01/19 10:20:05;;;;;;;74.18;48.55;;;38.90;2073.60;;;;;;4862409;29;20034;-79
2021/01/19 10:22:41;;;;;;;77.65;47.20;;;38.80;2073.60;;;;;;4974240;29;20542;-78
2021/01/19 10:25:58;;;;;;;92.25;58.45;;;38.50;2073.60;;;;;;4960675;29;20043;-78
2021/01/19 10:28:45;;;;;;;105.35;65.55;;;38.40;2073.60;;;;;;4899075;29;20040;-77
2021/01/19 10:31:22;;;;;;;113.53;66.63;;;13.60;2073.60;;;;;;4898307;29;20039;-78
2021/01/19 10:36:37;;;;;;;140.90;81.18;;;13.60;2022.40;;;;;;4915771;29;20044;-77
2021/01/19 10:39:08;;;;;;;124.07;69.30;;;13.60;2048.00;;;;;;4897714;29;20032;-78
2021/01/19 10:41:35;;;;;;;98.63;60.33;;;13.50;2048.00;;;;;;4881483;29;20069;-80
2021/01/19 10:44:03;;;;;;;79.78;50.00;;;13.50;2048.00;;;;;;4897365;29;20081;-78
2021/01/19 10:46:42;;;;;;;88.18;54.85;;;13.40;1971.20;;;;;;4901711;29;20145;-77
2021/01/19 10:49:33;;;;;;;93.97;53.28;;;13.40;1971.20;;;;;;4897316;29;20045;-80
2021/01/19 10:52:21;;;;;;;71.38;42.63;;;13.40;2022.40;;;;;;4859923;29;20138;-79
2021/01/19 10:55:18;;;;;;;63.08;38.63;;;13.50;1971.20;;;;;;4920948;29;20022;-81
2021/01/19 10:58:34;;;;;;;98.05;55.70;;;13.50;1971.20;;;;;;4853519;29;20025;-81
2021/01/19 11:02:14;;;;;;;91.25;52.25;;;13.40;2022.40;;;;;;4851570;29;20078;-80
2021/01/19 11:05:26;;;;;;;60.20;36.42;;;13.10;1996.80;;;;;;5217634;23;20090;-79
2021/01/19 11:08:55;;;;;;;84.47;51.38;;;13.10;1996.80;;;;;;4993022;28;20039;-80
2021/01/19 11:11:59;;;;;;;97.03;67.05;;;13.10;1996.80;;;;;;4974754;28;20039;-78
2021/01/19 11:14:49;;;;;;;92.45;57.38;;;13.10;1996.80;;;;;;4944253;28;20042;-78
2021/01/19 11:18:30;;;;;;;89.75;59.00;;;13.10;1996.80;;;;;;4959446;29;20015;-79
2021/01/19 11:21:01;;;;;;;64.57;39.42;;;13.20;1971.20;;;;;;4909754;29;20047;-80
2021/01/19 11:23:45;;;;;;;82.85;46.53;;;13.20;1971.20;;;;;;4903185;29;20032;-76
2021/01/19 11:26:11;;;;;;;93.00;51.90;;;13.30;2022.40;;;;;;4902134;29;20033;-76
2021/01/19 11:28:42;;;;;;;83.40;54.28;;;13.20;2022.40;;;;;;4881281;29;20037;-80
2021/01/19 11:31:35;;;;;;;64.03;41.65;;;13.20;1996.80;;;;;;4889006;29;20033;-80
2021/01/19 11:34:04;;;;;;;63.15;39.17;;;0.10;1971.20;;;;;;4891022;29;20069;-79
2021/01/19 11:36:36;;;;;;;70.00;43.55;;;13.10;1996.80;;;;;;4905108;29;20123;-81
2021/01/19 11:39:20;;;;;;;78.20;46.10;;;12.90;1971.20;;;;;;4903507;29;20100;-79
2021/01/19 11:41:47;;;;;;;64.47;44.13;;;0.20;1945.60;;;;;;4904336;29;20155;-82
2021/01/19 11:44:14;;;;;;;59.45;41.67;;;0.60;1945.60;;;;;;4900105;29;20084;-79
2021/01/19 11:46:40;;;;;;;60.53;40.03;;;25.80;1868.80;;;;;;4882518;29;20064;-78
2021/01/19 11:49:07;;;;;;;65.10;41.25;;;26.20;1868.80;;;;;;4898159;29;20061;-82
2021/01/19 11:51:36;;;;;;;50.70;34.45;;;26.50;1843.20;;;;;;4886317;29;20028;-86
2021/01/19 11:54:03;;;;;;;51.45;34.00;;;26.50;1792.00;;;;;;4867011;29;20037;-82
2021/01/19 11:56:48;;;;;;;47.72;33.72;;;51.30;1843.20;;;;;;4889233;29;20527;-87
2021/01/19 11:59:15;;;;;;;96.30;57.28;;;26.50;1792.00;;;;;;4888027;29;20108;-80
2021/01/19 12:01:41;;;;;;;57.70;40.15;;;26.40;1792.00;;;;;;4889496;29;20070;-83
2021/01/19 12:04:08;;;;;;;50.85;34.58;;;26.40;1792.00;;;;;;4876919;29;20047;-82
2021/01/19 12:06:39;;;;;;;74.72;47.38;;;26.40;1792.00;;;;;;4888284;29;20064;-81
2021/01/19 12:09:06;;;;;;;58.35;37.40;;;26.50;1817.60;;;;;;4876828;29;20036;-81
2021/01/19 12:11:32;;;;;;;58.80;40.08;;;51.20;1843.20;;;;;;4904036;29;20484;-86
2021/01/19 12:13:58;;;;;;;50.33;35.38;;;51.30;1817.60;;;;;;4931732;28;20069;-85
2021/01/19 12:16:25;;;;;;;34.17;23.60;;;51.90;1792.00;;;;;;4943934;28;20443;-80
2021/01/19 12:18:52;;;;;;;42.10;29.15;;;51.80;1689.60;;;;;;4948124;28;20503;-82
2021/01/19 12:21:19;;;;;;;70.10;47.17;;;51.80;1740.80;;;;;;4943651;28;20062;-82
2021/01/19 12:23:45;;;;;;;70.70;43.65;;;52.00;1766.40;;;;;;4953311;28;20063;-82
2021/01/19 12:26:12;;;;;;;43.88;26.48;;;76.80;1715.20;;;;;;4945215;28;20031;-79
2021/01/19 12:28:42;;;;;;;29.13;19.38;;;77.50;1740.80;;;;;;4952780;28;20039;-81
2021/01/19 12:31:09;;;;;;;30.60;19.38;;;51.80;1715.20;;;;;;4947619;28;20468;-83
2021/01/19 12:33:35;;;;;;;27.17;18.10;;;51.70;1766.40;;;;;;4945697;28;20034;-85
2021/01/19 12:36:02;;;;;;;31.15;20.55;;;51.80;1792.00;;;;;;4942253;28;20134;-85
2021/01/19 12:38:30;;;;;;;36.67;25.00;;;51.90;1766.40;;;;;;4948979;28;20073;-84
2021/01/19 12:40:56;;;;;;;33.40;23.77;;;52.10;1766.40;;;;;;4945937;28;20038;-83
2021/01/19 12:43:22;;;;;;;36.85;24.98;;;52.00;1740.80;;;;;;4950079;28;20022;-84
2021/01/19 12:45:49;;;;;;;42.75;27.98;;;77.10;1715.20;;;;;;4941783;28;21269;-84
2021/01/19 12:48:14;;;;;;;523.38;280.15;;;77.30;1689.60;;;;;;4939838;28;20035;-84
2021/01/19 12:50:43;;;;;;;80.90;50.13;;;77.70;1664.00;;;;;;4951662;28;20538;-82
2021/01/19 12:53:10;;;;;;;100.07;64.47;;;77.70;1638.40;;;;;;4946385;28;20024;-84
2021/01/19 12:55:36;;;;;;;160.20;98.32;;;102.50;1664.00;;;;;;4943993;28;20027;-83
2021/01/19 12:58:02;;;;;;;48.90;31.65;;;102.50;1612.80;;;;;;4951136;28;20069;-83
2021/01/19 13:00:28;;;;;;;40.45;26.50;;;77.50;1638.40;;;;;;4955017;28;20027;-86
2021/01/19 13:02:54;;;;;;;71.82;49.13;;;77.60;1664.00;;;;;;4956307;28;20030;-86
2021/01/19 13:05:20;;;;;;;38.15;24.27;;;102.60;1638.40;;;;;;4945335;28;20043;-83
2021/01/19 13:07:46;;;;;;;40.80;27.50;;;102.60;1664.00;;;;;;4971858;28;20165;-84
2021/01/19 13:10:12;;;;;;;100.28;61.40;;;103.00;1612.80;;;;;;4949489;28;20140;-86
2021/01/19 13:12:40;;;;;;;56.50;35.55;;;103.20;1612.80;;;;;;4953337;28;20416;-87
2021/01/19 13:15:07;;;;;;;47.30;32.75;;;128.00;1612.80;;;;;;4962720;28;20121;-85
2021/01/19 13:17:35;;;;;;;39.10;26.58;;;103.10;1561.60;;;;;;4944706;29;20024;-82
2021/01/19 13:20:03;;;;;;;57.17;38.03;;;128.70;1638.40;;;;;;4962969;28;20023;-85
2021/01/19 13:22:30;;;;;;;54.22;34.45;;;103.10;1638.40;;;;;;4949538;28;20059;-84
2021/01/19 13:24:56;;;;;;;43.10;27.30;;;103.20;1638.40;;;;;;4942011;28;20035;-86
2021/01/19 13:27:21;;;;;;;50.85;32.45;;;103.00;1587.20;;;;;;4940269;28;20041;-86
2021/01/19 13:29:47;;;;;;;56.50;38.95;;;102.90;1612.80;;;;;;4944549;28;20379;-87
2021/01/19 13:32:18;;;;;;;62.75;39.17;;;102.90;1612.80;;;;;;4945185;28;20027;-85
2021/01/19 13:34:44;;;;;;;145.18;88.20;;;102.60;1638.40;;;;;;4944015;28;20027;-84
2021/01/19 13:37:11;;;;;;;127.47;89.43;;;77.70;1689.60;;;;;;4947885;28;20061;-85
2021/01/19 13:39:37;;;;;;;76.38;49.80;;;77.60;1715.20;;;;;;4941906;28;20027;-85
2021/01/19 13:42:03;;;;;;;61.97;41.22;;;77.70;1715.20;;;;;;4945476;28;20380;-86
2021/01/19 13:44:29;;;;;;;51.97;35.03;;;77.30;1715.20;;;;;;4942514;28;20510;-83
2021/01/19 13:46:56;;;;;;;57.60;38.50;;;77.30;1766.40;;;;;;4944953;28;20137;-85
2021/01/19 13:49:24;;;;;;;64.55;38.83;;;77.10;1792.00;;;;;;4942962;28;20407;-86
2021/01/19 13:51:50;;;;;;;122.07;73.95;;;77.10;1766.40;;;;;;4939823;28;20491;-87
2021/01/19 13:54:16;;;;;;;171.40;106.90;;;77.00;1766.40;;;;;;4937419;29;20031;-85
2021/01/19 13:56:42;;;;;;;75.85;46.47;;;76.80;1792.00;;;;;;4937347;29;20028;-87
2021/01/19 13:59:08;;;;;;;44.28;28.38;;;52.00;1792.00;;;;;;4941101;29;20547;-88
2021/01/19 14:01:37;;;;;;;90.68;55.70;;;52.00;1792.00;;;;;;4942051;29;20055;-84
2021/01/19 14:04:03;;;;;;;68.03;43.67;;;52.10;1792.00;;;;;;4941863;29;20086;-86
2021/01/19 14:06:29;;;;;;;61.00;37.50;;;76.90;1792.00;;;;;;4941809;29;20055;-86
2021/01/19 14:08:55;;;;;;;50.30;33.63;;;77.30;1766.40;;;;;;4943636;28;20031;-88
2021/01/19 14:11:25;;;;;;;44.20;27.55;;;77.30;1740.80;;;;;;4953947;29;20023;-85
2021/01/19 14:13:54;;;;;;;53.05;36.78;;;77.40;1740.80;;;;;;4948394;29;20042;-86
2021/01/19 14:16:21;;;;;;;56.60;37.30;;;77.40;1766.40;;;;;;4960222;28;20114;-85
2021/01/19 14:18:47;;;;;;;60.38;40.33;;;77.50;1740.80;;;;;;4966025;28;20031;-86
2021/01/19 14:21:22;;;;;;;53.05;34.30;;;77.40;1740.80;;;;;;4967950;28;20034;-85
2021/01/19 14:23:48;;;;;;;49.80;32.72;;;77.50;1740.80;;;;;;4963348;28;20030;-87
2021/01/19 14:26:25;;;;;;;59.65;39.28;;;77.30;1740.80;;;;;;4960930;28;20031;-89
2021/01/19 14:28:51;;;;;;;58.92;39.15;;;77.20;1766.40;;;;;;4961021;28;20034;-90
2021/01/19 14:31:18;;;;;;;76.13;46.45;;;77.10;1792.00;;;;;;4961054;28;20023;-90
2021/01/19 14:33:44;;;;;;;58.55;38.15;;;77.00;1792.00;;;;;;4952658;28;20074;-86
2021/01/19 14:36:15;;;;;;;65.28;43.05;;;76.80;1817.60;;;;;;4960501;28;20027;-84
2021/01/19 14:38:40;;;;;;;53.53;32.83;;;52.10;1843.20;;;;;;4964533;28;20434;-86
2021/01/19 14:41:07;;;;;;;46.53;32.10;;;51.70;1894.40;;;;;;4971979;28;20022;-85
2021/01/19 14:43:33;;;;;;;45.63;31.13;;;51.70;1894.40;;;;;;4958967;28;20029;-87
2021/01/19 14:45:59;;;;;;;55.60;36.22;;;51.30;1920.00;;;;;;4970187;28;20030;-90
2021/01/19 14:48:26;;;;;;;73.60;45.95;;;51.30;1945.60;;;;;;4972110;28;20117;-86
2021/01/19 14:50:52;;;;;;;61.70;37.72;;;26.50;1945.60;;;;;;4975108;28;20027;-88
2021/01/19 14:53:18;;;;;;;64.55;40.38;;;26.30;1971.20;;;;;;4959961;28;20027;-89
2021/01/19 14:55:45;;;;;;;78.40;49.55;;;26.10;1996.80;;;;;;4959577;28;20122;-86
2021/01/19 14:58:11;;;;;;;106.35;64.80;;;26.10;1996.80;;;;;;4951594;29;20039;-87
2021/01/19 15:00:37;;;;;;;160.73;97.32;;;26.10;1996.80;;;;;;4950167;28;20065;-87
2021/01/19 15:03:05;;;;;;;159.02;95.68;;;26.30;1996.80;;;;;;4948337;28;20026;-84
2021/01/19 15:05:31;;;;;;;163.57;97.55;;;26.20;1996.80;;;;;;4952543;28;20042;-86
2021/01/19 15:07:58;;;;;;;117.25;65.38;;;26.20;1996.80;;;;;;4944469;28;20030;-81
2021/01/19 15:10:27;;;;;;;138.93;80.75;;;26.00;2022.40;;;;;;4944506;28;20106;-87
2021/01/19 15:12:53;;;;;;;146.23;87.28;;;25.90;2022.40;;;;;;4939314;29;20062;-87
2021/01/19 15:15:22;;;;;;;121.63;76.82;;;25.60;2048.00;;;;;;4942116;28;20046;-84
2021/01/19 15:17:51;;;;;;;158.40;98.40;;;25.90;2048.00;;;;;;4946607;28;20035;-86
2021/01/19 15:20:18;;;;;;;237.00;142.73;;;25.90;2048.00;;;;;;4948636;28;20023;-88
2021/01/19 15:22:44;;;;;;;174.52;108.63;;;25.90;2048.00;;;;;;4952064;28;20055;-83
2021/01/19 15:25:11;;;;;;;168.75;105.10;;;0.60;2048.00;;;;;;4948426;28;20382;-85
2021/01/19 15:27:37;;;;;;;168.57;110.05;;;25.90;2048.00;;;;;;4944647;28;20034;-88
2021/01/19 15:30:05;;;;;;;183.45;116.65;;;25.80;2048.00;;;;;;4948675;28;20314;-85
2021/01/19 15:32:30;;;;;;;180.02;107.28;;;51.20;2099.20;;;;;;4953038;28;20525;-83
2021/01/19 15:34:57;;;;;;;167.68;109.07;;;25.70;2099.20;;;;;;4952112;28;20026;-82
2021/01/19 15:37:24;;;;;;;164.35;105.72;;;0.90;2099.20;;;;;;4947404;28;20356;-84
2021/01/19 15:39:50;;;;;;;170.88;106.95;;;0.90;2124.80;;;;;;4942805;28;20035;-83
2021/01/19 15:42:17;;;;;;;171.45;112.25;;;0.80;2150.40;;;;;;4969413;28;20110;-85
2021/01/19 15:44:44;;;;;;;181.52;115.78;;;0.70;2150.40;;;;;;4947013;28;20355;-85
2021/01/19 15:47:11;;;;;;;165.38;100.15;;;0.70;2150.40;;;;;;4942477;28;20070;-83
2021/01/19 15:49:37;;;;;;;190.57;110.82;;;0.50;2176.00;;;;;;4969549;28;20049;-85
2021/01/19 15:52:03;;;;;;;183.07;106.85;;;0.50;2176.00;;;;;;4973722;28;20458;-81
2021/01/19 15:54:29;;;;;;;142.52;84.35;;;0.40;2176.00;;;;;;4976124;28;20031;-84
2021/01/19 15:56:55;;;;;;;157.45;93.72;;;0.40;2176.00;;;;;;4976493;28;20022;-86
2021/01/19 15:59:22;;;;;;;159.38;96.07;;;0.40;2176.00;;;;;;4977507;28;20045;-84
2021/01/19 16:01:57;;;;;;;166.88;99.60;;;0.30;2176.00;;;;;;4977247;28;20034;-85
2021/01/19 16:04:23;;;;;;;158.52;95.93;;;0.20;2201.60;;;;;;4975606;28;20057;-85
2021/01/19 16:06:50;;;;;;;150.32;92.18;;;13.10;2201.60;;;;;;4976940;28;20050;-84
2021/01/19 16:09:16;;;;;;;155.60;93.80;;;0.10;2201.60;;;;;;4977125;28;20019;-86
2021/01/19 16:11:47;;;;;;;185.50;113.95;;;0.00;2201.60;;;;;;4977078;28;20032;-85
2021/01/19 16:14:14;;;;;;;203.63;117.80;;;12.90;2201.60;;;;;;4976996;28;20036;-85
2021/01/19 16:16:40;;;;;;;226.45;127.50;;;13.00;2201.60;;;;;;4976349;28;20037;-83
2021/01/19 16:19:08;;;;;;;220.10;123.18;;;13.10;2201.60;;;;;;4976781;28;20756;-82
2021/01/19 16:21:35;;;;;;;290.05;161.90;;;13.10;2201.60;;;;;;4976242;28;20027;-82
2021/01/19 16:24:02;;;;;;;247.45;140.75;;;13.10;2201.60;;;;;;4976875;28;20018;-83
2021/01/19 16:26:34;;;;;;;242.60;144.32;;;13.20;2201.60;;;;;;4976484;28;20470;-81
2021/01/19 16:29:02;;;;;;;244.30;145.75;;;13.20;2201.60;;;;;;4976755;28;20390;-83
2021/01/19 16:31:38;;;;;;;234.55;137.35;;;13.10;2201.60;;;;;;4971974;28;20102;-81
2021/01/19 16:34:08;;;;;;;215.15;131.20;;;13.20;2201.60;;;;;;4966910;28;20022;-83
2021/01/19 16:36:37;;;;;;;183.68;112.65;;;13.40;2201.60;;;;;;4962774;28;20031;-82
2021/01/19 16:39:06;;;;;;;185.90;114.88;;;13.20;2201.60;;;;;;4956841;28;20035;-82
2021/01/19 16:41:32;;;;;;;173.45;105.15;;;13.20;2201.60;;;;;;4950188;29;20030;-84
2021/01/19 16:43:58;;;;;;;173.32;105.20;;;13.30;2201.60;;;;;;4950949;28;20041;-83
2021/01/19 16:46:24;;;;;;;347.30;178.02;;;13.50;2201.60;;;;;;4961280;28;20023;-80
2021/01/19 16:48:52;;;;;;;504.45;233.68;;;13.30;2201.60;;;;;;4949766;28;20034;-78
2021/01/19 16:51:23;;;;;;;434.70;232.75;;;13.10;2201.60;;;;;;4941206;28;20024;-80
2021/01/19 16:53:50;;;;;;;339.08;187.18;;;13.40;2201.60;;;;;;4937983;28;20074;-81
2021/01/19 16:56:17;;;;;;;248.00;144.45;;;13.30;2201.60;;;;;;4950452;28;20398;-78
2021/01/19 16:58:43;;;;;;;181.20;103.70;;;13.40;2201.60;;;;;;4956652;28;20019;-77
2021/01/19 17:01:13;;;;;;;233.50;136.52;;;13.40;2201.60;;;;;;4949469;28;20031;-82
2021/01/19 17:03:42;;;;;;;190.20;110.60;;;13.40;2201.60;;;;;;4951473;28;20102;-83
2021/01/19 17:06:11;;;;;;;183.23;109.47;;;13.50;2201.60;;;;;;4958285;28;20566;-82
2021/01/19 17:08:38;;;;;;;279.13;161.57;;;13.50;2201.60;;;;;;4954214;28;20031;-79
2021/01/19 17:11:07;;;;;;;257.35;147.15;;;13.50;2201.60;;;;;;4956302;28;20019;-81
2021/01/19 17:13:38;;;;;;;296.02;169.43;;;13.50;2201.60;;;;;;4957855;28;20073;-81
2021/01/19 17:16:05;;;;;;;340.73;200.82;;;13.60;2201.60;;;;;;4956907;28;20498;-78
2021/01/19 17:18:34;;;;;;;359.10;203.38;;;13.60;2201.60;;;;;;4939651;29;20475;-79
2021/01/19 17:21:00;;;;;;;331.75;204.70;;;13.60;2201.60;;;;;;4940369;29;20416;-77
2021/01/19 17:23:27;;;;;;;300.60;178.70;;;13.00;2201.60;;;;;;4941032;29;20098;-78
2021/01/19 17:25:57;;;;;;;303.33;186.73;;;13.70;2201.60;;;;;;4946735;29;20023;-80
2021/01/19 17:28:27;;;;;;;337.25;199.68;;;13.60;2201.60;;;;;;4948826;29;20038;-78
2021/01/19 17:30:53;;;;;;;353.10;209.02;;;13.70;2201.60;;;;;;4943499;29;20067;-79
2021/01/19 17:33:21;;;;;;;347.33;196.85;;;38.40;2201.60;;;;;;4945245;29;20031;-80
2021/01/19 17:35:48;;;;;;;378.85;219.73;;;38.50;2201.60;;;;;;4948813;29;20109;-78
2021/01/19 17:38:15;;;;;;;369.73;213.02;;;38.50;2201.60;;;;;;4969628;29;20024;-81
2021/01/19 17:41:04;;;;;;;351.65;217.63;;;38.80;2201.60;;;;;;4955325;29;20030;-79
2021/01/19 17:43:41;;;;;;;374.20;211.80;;;38.50;2201.60;;;;;;4973422;29;20023;-78
2021/01/19 17:46:52;;;;;;;319.00;188.60;;;38.70;2201.60;;;;;;4943811;29;20020;-78
2021/01/19 17:49:55;;;;;;;311.50;183.10;;;38.70;2201.60;;;;;;4928114;29;20043;-77
2021/01/19 17:53:03;;;;;;;296.48;176.73;;;38.70;2201.60;;;;;;4956359;29;20035;-78
2021/01/19 17:59:47;;;;;;;376.27;219.00;;;38.90;2201.60;;;;;;4978850;29;20059;-79